Nearby METAR (Airport) Reports

 

KPRN - Greenville, Alabama, USA
Distance from station: WNW 17mi, 28km
Updated: Thu, 14-Dec-2017 11:56am CST
Clear
Clear
 Wind from calm
Wind: Calm
Temperature: 61°F , 16°C
Dew Point: 36°F , 2°C
Humidity: 39%
Barometer: 29.96 inHg , 1014.6 hPa
Clouds: Clear
Visibility: 10 miles , 16 km
2017/12/14 17:56 KPRN 141756Z AUTO 00000KT 10SM CLR 16/02 A2996 RMK AO2 SLP145 T01560022 10156 20006 58010
KTOI - Troy, Alabama, USA
Distance from station: ENE 21mi, 34km
Updated: Thu, 14-Dec-2017 11:53am CST
Clear
Clear
 Wind from calm
Wind: Calm
Temperature: 57°F , 14°C
Dew Point: 36°F , 2°C
Humidity: 44%
Barometer: 29.98 inHg , 1015.2 hPa
Clouds: Clear
Visibility: 10 miles , 16 km
2017/12/14 17:53 KTOI 141753Z AUTO 00000KT 10SM CLR 14/02 A2998 RMK AO2 SLP152 T01440022 10150 20000 58008
K79J - Andalusia/Opp Ar, Alabama, USA
Distance from station: S 29mi, 47km
Updated: Thu, 14-Dec-2017 11:56am CST
Clear
Clear
 Wind from WSW
Wind: WSW 6 mph , 9 km/h
Temperature: 63°F , 17°C
Dew Point: 37°F , 3°C
Humidity: 39%
Barometer: 29.97 inHg , 1014.9 hPa
Clouds: Clear
Visibility: 10 miles , 16 km
2017/12/14 17:56 K79J 141756Z AUTO 24005KT 10SM CLR 17/03 A2997 RMK AO2 SLP147 T01670033 10172 20039 58015
 
KMGM - Montgomery, Alabama, USA
Distance from station: N 39mi, 63km
Updated: Thu, 14-Dec-2017 11:53am CST
Clear
Clear
 Wind from calm
Wind: Calm
Temperature: 55°F , 13°C
Dew Point: 34°F , 1°C
Humidity: 44%
Barometer: 29.99 inHg , 1015.6 hPa
Clouds: Clear
Visibility: 10 miles , 16 km
2017/12/14 17:53 KMGM 141753Z 00000KT 10SM CLR 13/01 A2999 RMK AO2 SLP153 T01330011 10133 20022 58008
KMXF - Maxwell Afb/Mgm, Alabama, USA
Distance from station: N 44mi, 70km
Updated: Thu, 14-Dec-2017 11:56am CST
Clear
Clear
 Wind from calm
Wind: Calm
Temperature: 54°F , 12°C
Dew Point: 36°F , 2°C
Humidity: 51%
Barometer: 29.97 inHg , 1014.9 hPa
Clouds: Clear
Visibility: 7 miles , 11 km
2017/12/14 17:56 KMXF 141756Z AUTO 00000KT 7SM CLR 12/02 A2997 RMK AO2 SLP152 T01230019 10123 20010 58007
KLOR - Lowe Ahp/Ft. Ruc, Alabama, USA
Distance from station: SE 44mi, 71km
Updated: Thu, 14-Dec-2017 12:35pm CST
Partly cloudy
Partly cloudy
 Wind from SSW
Wind: SSW 5 mph , 7 km/h
Temperature: 61°F , 16°C
Dew Point: 39°F , 4°C
Humidity: 45%
Barometer: 29.95 inHg , 1014.2 hPa
Clouds: Partly cloudy
Visibility: 7 miles , 11 km
Cloud details: Partly cloudy 27000 ft
2017/12/14 18:35 KLOR 141835Z AUTO 21004KT 7SM SCT270 16/04 A2995 RMK AO2 SLP125
 
KGZH - Evergreen, Alabama, USA
Distance from station: WSW 46mi, 75km
Updated: Thu, 14-Dec-2017 11:53am CST
Clear
Clear
 Wind from SW
Wind: SW 6 mph , 9 km/h
Temperature: 61°F , 16°C
Dew Point: 39°F , 4°C
Humidity: 45%
Barometer: 29.99 inHg , 1015.6 hPa
Clouds: Clear
Visibility: 10 miles , 16 km
2017/12/14 17:53 KGZH 141753Z AUTO 22005KT 10SM CLR 16/04 A2999 RMK AO2 SLP153 T01560039 10156 20006 58013
K0J4 - Florala Muni, Alabama, USA
Distance from station: S 47mi, 76km
Updated: Thu, 14-Dec-2017 11:58am CST
Clear
Clear
 Wind from calm
Wind: Calm
Temperature: 59°F , 15°C
Dew Point: 37°F , 3°C
Humidity: 45%
Barometer: 30.00 inHg , 1015.9 hPa
Clouds: Clear
Visibility: 10 miles , 16 km
2017/12/14 17:58 K0J4 141758Z AUTO 00000KT 10SM CLR 15/03 A3000 RMK AO2 SLP157 60000 T01500033 10156 20044 58015
KOZR - Ozark/Cairns Aaf, Alabama, USA
Distance from station: SE 49mi, 78km
Updated: Thu, 14-Dec-2017 11:56am CST
Clear
Clear
 Wind from S
Wind: S 5 mph , 7 km/h
Temperature: 61°F , 16°C
Dew Point: 37°F , 3°C
Humidity: 42%
Barometer: 29.97 inHg , 1014.9 hPa
Clouds: Clear
Visibility: 10 miles , 16 km
2017/12/14 17:56 KOZR 141756Z AUTO 17004KT 10SM CLR 16/03 A2997 RMK AO2 SLP151 T01560034 10161 20024 58016
 
KHEY - Ft Rucker/Hanche, Alabama, USA
Distance from station: ESE 49mi, 79km
Updated: Thu, 14-Dec-2017 11:58am CST
Mostly cloudy
Mostly cloudy
 Wind from SW
Wind: SW 3 mph , 6 km/h
Temperature: 59°F , 15°C
Dew Point: 41°F , 5°C
Humidity: 51%
Barometer: 29.96 inHg , 1014.6 hPa
Clouds: Mostly cloudy
Visibility: 9 miles , 14 km
Cloud details: Mostly cloudy 27000 ft
2017/12/14 17:58 KHEY 141758Z AUTO 22003KT 9SM BKN270 15/05 A2996 RMK AO2 SLP148 T01490045 10152 20027 58015
KDHN - Dothan, Alabama, USA
Distance from station: ESE 61mi, 97km
Updated: Thu, 14-Dec-2017 11:53am CST
Clear
Clear
 Wind from SW
Wind: SW 7 mph , 11 km/h
Temperature: 59°F , 15°C
Dew Point: 39°F , 4°C
Humidity: 48%
Barometer: 30.01 inHg , 1016.3 hPa
Clouds: Clear
Visibility: 10 miles , 16 km
2017/12/14 17:53 KDHN 141753Z 22006KT 10SM CLR 15/04 A3001 RMK AO2 SLP160 T01500044 10150 20044 58014 $
KCEW - Crestview, Florida, USA
Distance from station: S 66mi, 107km
Updated: Thu, 14-Dec-2017 11:53am CST
Clear
Clear
 Wind from WNW
Wind: WNW 6 mph , 9 km/h
Temperature: 61°F , 16°C
Dew Point: 36°F , 2°C
Humidity: 39%
Barometer: 30.01 inHg , 1016.3 hPa
Clouds: Clear
Visibility: 10 miles , 16 km
2017/12/14 17:53 KCEW 141753Z AUTO 29005KT 10SM CLR 16/02 A3001 RMK AO2 SLP160 T01610022 10161 20011 58011
 
KEUF - Eufaula, Alabama, USA
Distance from station: ENE 73mi, 118km
Updated: Thu, 14-Dec-2017 11:58am CST
Clear
Clear
 Wind from S
Wind: S 7 mph , 11 km/h
Temperature: 63°F , 17°C
Dew Point: 39°F , 4°C
Humidity: 42%
Barometer: 29.96 inHg , 1014.6 hPa
Clouds: Clear
Visibility: 10 miles , 16 km
2017/12/14 17:58 KEUF 141758Z AUTO 17006KT 10SM CLR 17/04 A2996 RMK AO2 SLP143 T01670039 10167 20017 58012
KJKA - Gulf Shores, Alabama, USA
Distance from station: SSW 132mi, 212km
Updated: Thu, 14-Dec-2017 12:35pm CST
Clear
Clear
 Wind from W
Wind: W 7 mph , 11 km/h
Temperature: 61°F , 16°C
Dew Point: 32°F , 0°C
Humidity: 34%
Barometer: 29.99 inHg , 1015.6 hPa
Clouds: Clear
Visibility: 10 miles , 16 km
2017/12/14 18:35 KJKA 141835Z AUTO 28006KT 10SM CLR 16/00 A2999 RMK AO2 T01630000
KLSF - Ft Benning/Colum, Georgia, USA
Distance from station: SNE 89mi, 143km
Updated: Thu, 14-Dec-2017 11:56am CST
Clear
Clear
 Wind from SE
Wind: SE 5 mph , 7 km/h
Temperature: 59°F , 15°C
Dew Point: 36°F , 2°C
Humidity: 42%
Barometer: 29.96 inHg , 1014.6 hPa
Clouds: Clear
Visibility: 10 miles , 16 km
2017/12/14 17:56 KLSF 141756Z AUTO 14004KT 10SM CLR 15/02 A2996 RMK AO2 SLP151 T01450024 10145 21010 58009
 
KMOB - Mobile/Bates, Alabama, USA
Distance from station: SW 125mi, 202km
Updated: Thu, 14-Dec-2017 11:56am CST
Mostly cloudy
Mostly cloudy
 Wind from SSW
Wind: SSW 8 mph , 13 km/h
Temperature: 63°F , 17°C
Dew Point: 36°F , 2°C
Humidity: 37%
Barometer: 30.00 inHg , 1015.9 hPa
Clouds: Mostly cloudy
Visibility: 10 miles , 16 km
Cloud details: Few Clouds 6000 ft
Few Clouds 15000 ft
Mostly cloudy 22000 ft
2017/12/14 17:56 KMOB 141756Z 21007KT 10SM FEW060 FEW150 BKN220 17/02 A3000 RMK AO2 SLP157 T01670022 10172 20056 58009 $
KNMM - Meridian Nas, Mississippi, USA
Distance from station: WNW 151mi, 243km
Updated: Thu, 14-Dec-2017 11:56am CST
Mostly cloudy
Mostly cloudy
 Wind from calm
Wind: Calm
Temperature: 54°F , 12°C
Dew Point: 36°F , 2°C
Humidity: 51%
Barometer: 29.99 inHg , 1015.6 hPa
Clouds: Mostly cloudy
Visibility: 10 miles , 16 km
Cloud details: Mostly cloudy 30000 ft
2017/12/14 17:56 KNMM 141756Z 00000KT 10SM BKN300 12/02 A2999 RMK AO2 SLP165 T01170022 10122 20044 58004 $
KQHY - Hurlbert (Ft Walton Bch), Florida, USA
Distance from station: S 94mi, 151km
Updated: Thu, 14-Dec-2017 11:56am CST
Few Clouds
Few Clouds
 Wind from W
Wind: W 5 mph , 7 km/h
Temperature: 61°F , 16°C
Dew Point: 43°F , 6°C
Humidity: 52%
Barometer: 30.00 inHg , 1015.9 hPa
Clouds: Few Clouds
Visibility: 10 miles , 16 km
Cloud details: Few Clouds 21000 ft
2017/12/14 17:56 KQHY 141756Z AUTO 26004KT 10SM FEW210 16/06 A3000 RMK AO2 SLP166 T01590059 10164 20066 58013
 
KTCL - Tuscaloosa, Alabama, USA
Distance from station: NNW 129mi, 207km
Updated: Thu, 14-Dec-2017 11:53am CST
Clear
Clear
 Wind from varies
Wind: varies 3 mph , 6 km/h
Temperature: 54°F , 12°C
Dew Point: 36°F , 2°C
Humidity: 51%
Barometer: 29.98 inHg , 1015.2 hPa
Clouds: Clear
Visibility: 10 miles , 16 km
2017/12/14 17:53 KTCL 141753Z VRB03KT 10SM CLR 12/02 A2998 RMK AO2 SLP151 T01220017 10122 21011 58009
KECP - Panama City, Florida, USA
Distance from station: SSE 122mi, 196km
Updated: Thu, 14-Dec-2017 11:53am CST
Clear
Clear
 Wind from WSW
Wind: WSW 9 mph , 15 km/h
Temperature: 64°F , 18°C
Dew Point: 30°F , -1°C
Humidity: 28%
Barometer: 29.99 inHg , 1015.6 hPa
Clouds: Clear
Visibility: 10 miles , 16 km
2017/12/14 17:53 KECP 141753Z 24008KT 10SM CLR 18/M01 A2999 RMK AO2 SLP166 T01831011 10189 20039 58016
KCBM - Columbus Afb, Mississippi, USA
Distance from station: NW 175mi, 282km
Updated: Thu, 14-Dec-2017 11:56am CST
Clear
Clear
 Wind from N
Wind: N 3 mph , 6 km/h
Temperature: 55°F , 13°C
Dew Point: 36°F , 2°C
Humidity: 47%
Barometer: 29.97 inHg , 1014.9 hPa
Clouds: Clear
Visibility: 10 miles , 16 km
2017/12/14 17:56 KCBM 141756Z AUTO 36003KT 10SM CLR 13/02 A2997 RMK AO2 SLP152 T01330019 10133 21028 58004 $
 
KBHM - Birmingham, Alabama, USA
Distance from station: N 132mi, 212km
Updated: Thu, 14-Dec-2017 11:53am CST
Partly cloudy
Partly cloudy
 Wind from calm
Wind: Calm
Temperature: 54°F , 12°C
Dew Point: 30°F , -1°C
Humidity: 41%
Barometer: 29.98 inHg , 1015.2 hPa
Clouds: Partly cloudy
Visibility: 10 miles , 16 km
Cloud details: Partly cloudy 25000 ft
2017/12/14 17:53 KBHM 141753Z 00000KT 10SM SCT250 12/M01 A2998 RMK AO2 SLP151 T01171011 10117 20000 58002
KAAF - Apalachicola, Florida, USA
Distance from station: SSE 156mi, 250km
Updated: Thu, 14-Dec-2017 11:53am CST
Clear
Clear
 Wind from SW
Wind: SW 12 mph , 19 km/h
Temperature: 68°F , 20°C
Dew Point: 54°F , 12°C
Humidity: 60%
Barometer: 30.00 inHg , 1015.9 hPa
Clouds: Clear
Visibility: 10 miles , 16 km
2017/12/14 17:53 KAAF 141753Z AUTO 23010KT 10SM CLR 20/12 A3000 RMK AO2 SLP159 T02000122 10206 20067 58012
KATL - Atlanta, Georgia, USA
Distance from station: NE 177mi, 287km
Updated: Thu, 14-Dec-2017 11:52am CST
Mostly cloudy
Mostly cloudy
 Wind from SW
Wind: SW 7 mph , 11 km/h
Temperature: 55°F , 13°C
Dew Point: 34°F , 1°C
Humidity: 44%
Barometer: 29.92 inHg , 1013.2 hPa
Clouds: Mostly cloudy
Visibility: 10 miles , 16 km
Cloud details: Mostly cloudy 25000 ft
2017/12/14 17:52 KATL 141752Z 22006KT 10SM BKN250 13/01 A2992 RMK AO2 SLP135 T01280006 10128 20033 50001
 
KGPT - Gulfport, Mississippi, USA
Distance from station: SW 192mi, 309km
Updated: Thu, 14-Dec-2017 11:53am CST
Clear
Clear
 Wind from calm
Wind: Calm
Temperature: 63°F , 17°C
Dew Point: 39°F , 4°C
Humidity: 42%
Barometer: 30.00 inHg , 1015.9 hPa
Clouds: Clear
Visibility: 10 miles , 16 km
2017/12/14 17:53 KGPT 141753Z AUTO 00000KT 10SM CLR 17/04 A3000 RMK AO2 SLP158 T01670044 10172 20044
KNEW - New Orleans/Lake, Louisiana, USA
Distance from station: SW 255mi, 410km
Updated: Thu, 14-Dec-2017 11:53am CST
Clear
Clear
 Wind from NW
Wind: NW 3 mph , 6 km/h
Temperature: 61°F , 16°C
Dew Point: 45°F , 7°C
Humidity: 55%
Barometer: 30.02 inHg , 1016.6 hPa
Clouds: Clear
Visibility: 8 miles , 13 km
2017/12/14 17:53 KNEW 141753Z 31003KT 8SM CLR 16/07 A3002 RMK AO2 SLP157 T01560067 10156 20072 58008
KP92 - Salt Point, Louisiana, USA
Distance from station: SW 347mi, 559km
Updated: Thu, 14-Dec-2017 11:53am CST

 Wind from varies
Wind: varies 3 mph , 6 km/h
Temperature: 61°F , 16°C
Dew Point: 48°F , 9°C
Humidity: 63%
Barometer: 30.00 inHg , 1015.9 hPa
2017/12/14 17:53 KP92 141753Z AUTO VRB03KT 16/09 A3000 RMK AO1 SLP159 T01560094 10167 20072 58008